Time;durP1;ratioP1;P1;durP2;ratioP2;P2;SDS_P1;SDS_P2;PMS_P1;PMS_P2;Temp;Humidity;BMP_temperature;BMP_pressure;BME280_temperature;BME280_humidity;BME280_pressure;Samples;Min_cycle;Max_cycle;Signal;HPM_P1;HPM_P2
2021/06/29 00:00:24;;;;;;;5.97;1.85;;;;;;;22.63;51.69;100940.56;6152922;23;20417;-81
2021/06/29 00:03:04;;;;;;;2.05;1.80;;;;;;;22.61;52.18;100936.34;6152933;23;20068;-81
2021/06/29 00:05:32;;;;;;;1.88;1.77;;;;;;;22.54;52.29;100924.53;6153035;23;20430;-81
2021/06/29 00:07:58;;;;;;;3.83;1.88;;;;;;;22.55;52.86;100926.22;6126041;23;20009;-81
2021/06/29 00:10:24;;;;;;;4.20;1.90;;;;;;;22.47;52.74;100932.75;6152901;23;20031;-81
2021/06/29 00:12:51;;;;;;;2.60;2.40;;;;;;;22.40;53.78;100926.41;6152982;23;20009;-81
2021/06/29 00:15:16;;;;;;;3.10;1.92;;;;;;;22.48;53.39;100924.31;6152702;23;20006;-81
2021/06/29 00:17:42;;;;;;;6.80;2.22;;;;;;;22.50;53.09;100926.84;6152407;23;20009;-81
2021/06/29 00:20:07;;;;;;;4.13;2.25;;;;;;;22.46;53.85;100917.34;6152704;23;20063;-81
2021/06/29 00:22:33;;;;;;;2.72;2.47;;;;;;;22.42;54.59;100910.59;6125897;23;20404;-81
2021/06/29 00:24:59;;;;;;;3.83;3.08;;;;;;;22.37;54.93;100911.22;6152297;23;20009;-81
2021/06/29 00:27:24;;;;;;;2.55;2.17;;;;;;;22.41;54.77;100920.72;6152579;23;20060;-81
2021/06/29 00:29:49;;;;;;;2.15;2.00;;;;;;;22.52;54.76;100926.63;6126206;23;20016;-81
2021/06/29 00:32:15;;;;;;;2.55;2.30;;;;;;;22.35;55.08;100918.81;6152417;23;20457;-81
2021/06/29 00:34:40;;;;;;;3.42;2.85;;;;;;;22.39;54.82;100924.72;6152777;23;20010;-81
2021/06/29 00:37:05;;;;;;;2.80;2.60;;;;;;;22.33;55.34;100923.66;6152859;23;20409;-81
2021/06/29 00:39:31;;;;;;;3.33;2.15;;;;;;;22.24;55.51;100925.75;6126067;23;20032;-81
2021/06/29 00:41:56;;;;;;;3.10;2.80;;;;;;;22.17;55.88;100922.16;6152587;23;20021;-81
2021/06/29 00:44:23;;;;;;;5.20;2.85;;;;;;;22.22;56.04;100921.53;6152410;23;20077;-81
2021/06/29 00:46:50;;;;;;;2.80;2.60;;;;;;;22.29;55.90;100918.81;6152638;23;20466;-80
2021/06/29 00:49:16;;;;;;;4.35;2.92;;;;;;;22.24;56.46;100923.00;6125749;23;20405;-81
2021/06/29 00:51:42;;;;;;;2.78;2.58;;;;;;;22.32;56.16;100918.41;6152314;23;20088;-81
2021/06/29 00:54:09;;;;;;;5.50;2.70;;;;;;;22.29;56.05;100914.19;6152315;23;20092;-81
2021/06/29 00:56:36;;;;;;;3.13;2.90;;;;;;;22.34;55.78;100911.63;6152136;23;20080;-81
2021/06/29 00:59:02;;;;;;;3.13;2.47;;;;;;;22.39;55.48;100903.63;6125667;23;20013;-81
2021/06/29 01:01:27;;;;;;;3.28;2.78;;;;;;;22.31;56.27;100905.72;6152019;23;20457;-81
2021/06/29 01:03:53;;;;;;;3.65;2.78;;;;;;;22.33;55.83;100909.97;6125747;23;20370;-81
2021/06/29 01:06:19;;;;;;;3.40;2.95;;;;;;;22.25;56.56;100921.09;6152429;23;20013;-81
2021/06/29 01:08:45;;;;;;;4.25;3.10;;;;;;;22.28;56.44;100917.94;6152126;23;19997;-81
2021/06/29 01:11:10;;;;;;;9.38;3.30;;;;;;;22.29;56.58;100916.06;6152532;23;20072;-81
2021/06/29 01:13:39;;;;;;;5.82;3.60;;;;;;;22.27;56.58;100919.00;6152581;23;20076;-81
2021/06/29 01:16:06;;;;;;;4.03;3.55;;;;;;;22.28;56.62;100917.09;6154082;23;20434;-80
2021/06/29 01:18:32;;;;;;;6.53;3.47;;;;;;;22.30;56.38;100926.81;6153962;23;20009;-81
2021/06/29 01:20:58;;;;;;;3.85;3.50;;;;;;;22.27;56.52;100921.75;6153816;23;20005;-81
2021/06/29 01:23:26;;;;;;;3.63;3.13;;;;;;;22.24;56.82;100927.66;6127725;23;20019;-80
2021/06/29 01:26:28;;;;;;;4.72;3.55;;;;;;;22.24;57.18;100924.91;6154421;23;20009;-81
2021/06/29 01:31:44;;;;;;;4.70;4.30;;;;;;;22.24;56.92;100928.50;6154159;23;20131;-81
2021/06/29 01:34:09;;;;;;;5.05;3.90;;;;;;;22.34;56.64;100921.75;6153791;23;20005;-80
2021/06/29 01:36:36;;;;;;;5.60;3.85;;;;;;;22.29;56.94;100914.19;6153877;23;20060;-81
2021/06/29 01:39:08;;;;;;;5.15;4.22;;;;;;;22.25;57.57;100908.28;6153960;23;20017;-81
2021/06/29 01:41:34;;;;;;;8.52;5.05;;;;;;;22.19;58.13;100910.97;6127293;23;20013;-81
2021/06/29 01:44:07;;;;;;;5.90;5.13;;;;;;;22.18;58.20;100907.41;6154108;23;20015;-81
2021/06/29 01:46:36;;;;;;;5.80;5.20;;;;;;;22.16;58.86;100904.03;6154085;23;20084;-81
2021/06/29 01:49:02;;;;;;;5.90;5.32;;;;;;;22.17;58.99;100908.47;6153688;23;20002;-81
2021/06/29 01:51:28;;;;;;;7.18;5.40;;;;;;;22.15;59.68;100898.72;6153810;23;20010;-81
2021/06/29 01:53:53;;;;;;;8.32;5.60;;;;;;;22.17;59.78;100899.41;6153614;23;20036;-81
2021/06/29 01:56:26;;;;;;;8.07;6.20;;;;;;;22.21;59.55;100896.03;6154360;23;20005;-81
2021/06/29 01:58:57;;;;;;;7.68;6.35;;;;;;;22.22;59.95;100888.66;6153660;23;20012;-80
2021/06/29 02:01:23;;;;;;;9.85;6.50;;;;;;;22.20;60.06;100885.28;6153782;23;20009;-81
2021/06/29 02:03:49;;;;;;;8.82;6.40;;;;;;;22.22;60.29;100884.03;6153382;23;20483;-81
2021/06/29 02:06:15;;;;;;;10.48;6.75;;;;;;;22.21;60.34;100879.59;6153959;23;20012;-81
2021/06/29 02:08:41;;;;;;;7.53;6.57;;;;;;;22.19;60.47;100876.25;6153707;23;20001;-81
2021/06/29 02:11:06;;;;;;;8.98;6.95;;;;;;;22.18;60.77;100869.06;6153768;23;20010;-81
2021/06/29 02:13:31;;;;;;;12.40;7.20;;;;;;;22.11;61.33;100870.91;6153113;23;20013;-81
2021/06/29 02:15:59;;;;;;;9.15;7.40;;;;;;;22.12;61.53;100874.50;6127458;23;20032;-81
2021/06/29 02:18:24;;;;;;;7.22;6.40;;;;;;;22.10;61.82;100865.63;6126770;23;20063;-81
2021/06/29 02:20:49;;;;;;;10.85;7.80;;;;;;;22.11;61.52;100870.06;6154081;23;20365;-81
2021/06/29 02:23:15;;;;;;;8.88;7.40;;;;;;;22.10;61.89;100876.59;6153282;23;20020;-81
2021/06/29 02:25:41;;;;;;;10.82;7.85;;;;;;;22.11;61.92;100870.06;6153197;23;20010;-81
2021/06/29 02:28:06;;;;;;;9.00;7.97;;;;;;;22.05;62.66;100865.44;6126595;23;20036;-81
2021/06/29 02:30:32;;;;;;;9.30;8.27;;;;;;;22.01;62.93;100857.63;6153566;23;20093;-81
2021/06/29 02:32:57;;;;;;;9.82;8.50;;;;;;;21.98;63.07;100862.69;6153376;23;20084;-81
2021/06/29 02:35:23;;;;;;;11.45;7.97;;;;;;;21.96;63.66;100862.88;6153713;23;20075;-81
2021/06/29 02:37:48;;;;;;;10.25;8.23;;;;;;;21.96;63.42;100857.41;6153241;23;20010;-81
2021/06/29 02:40:13;;;;;;;9.88;7.55;;;;;;;21.91;64.16;100848.97;6127080;23;20005;-81
2021/06/29 02:42:39;;;;;;;7.88;7.18;;;;;;;21.92;64.27;100847.94;6153607;23;20009;-81
2021/06/29 02:45:07;;;;;;;10.25;7.10;;;;;;;21.95;64.74;100839.28;6127514;23;20009;-81
2021/06/29 02:47:37;;;;;;;12.80;7.90;;;;;;;21.90;65.73;100838.22;6153632;23;20491;-81
2021/06/29 02:50:05;;;;;;;9.80;7.07;;;;;;;21.85;65.89;100841.56;6153362;23;20040;-81
2021/06/29 02:52:32;;;;;;;9.73;6.97;;;;;;;21.84;66.44;100837.16;6153705;23;20036;-81
2021/06/29 02:54:58;;;;;;;13.38;6.93;;;;;;;21.83;66.46;100829.16;6153878;23;20005;-81
2021/06/29 02:57:24;;;;;;;12.02;6.82;;;;;;;21.88;66.63;100829.38;6126887;23;20009;-81
2021/06/29 02:59:49;;;;;;;10.20;7.22;;;;;;;21.84;67.10;100830.84;6153525;23;20056;-81
2021/06/29 03:02:14;;;;;;;8.57;6.85;;;;;;;21.84;66.84;100833.59;6153337;23;20020;-81
2021/06/29 03:04:40;;;;;;;8.68;6.70;;;;;;;21.84;67.10;100844.53;6153157;23;20005;-81
2021/06/29 03:07:05;;;;;;;8.55;6.97;;;;;;;21.81;67.27;100832.09;6153283;23;20005;-81
2021/06/29 03:09:30;;;;;;;6.68;5.97;;;;;;;21.82;67.09;100831.03;6126978;23;20009;-81
2021/06/29 03:11:56;;;;;;;9.60;7.18;;;;;;;21.82;67.08;100831.03;6153109;23;20101;-81
2021/06/29 03:14:21;;;;;;;7.20;6.30;;;;;;;21.76;67.50;100829.13;6153363;23;20006;-80
2021/06/29 03:16:46;;;;;;;10.52;6.00;;;;;;;21.90;66.59;100833.59;6126459;23;20387;-81
2021/06/29 03:19:11;;;;;;;8.85;5.45;;;;;;;21.93;66.73;100840.56;6153348;23;20009;-81
2021/06/29 03:21:37;;;;;;;6.57;5.90;;;;;;;21.88;66.84;100834.84;6153629;23;20386;-81
2021/06/29 03:24:03;;;;;;;8.27;6.10;;;;;;;21.83;67.34;100842.84;6126543;23;20005;-81
2021/06/29 03:26:28;;;;;;;7.93;5.72;;;;;;;21.89;67.15;100842.88;6153431;23;20009;-81
2021/06/29 03:28:53;;;;;;;8.65;6.22;;;;;;;21.91;66.88;100839.91;6152539;23;20017;-81
2021/06/29 03:31:19;;;;;;;6.72;5.78;;;;;;;21.96;66.66;100846.44;6153278;23;20024;-81
2021/06/29 03:33:44;;;;;;;10.15;5.55;;;;;;;21.95;66.71;100836.56;6153147;23;20052;-81
2021/06/29 03:36:10;;;;;;;11.68;6.05;;;;;;;21.94;66.71;100842.22;6126317;23;20019;-81
2021/06/29 03:38:36;;;;;;;8.05;4.85;;;;;;;22.01;66.24;100835.72;6152813;23;20005;-81
2021/06/29 03:41:02;;;;;;;7.20;5.57;;;;;;;21.99;65.98;100835.06;6126542;23;20025;-81
2021/06/29 03:43:27;;;;;;;16.95;5.57;;;;;;;22.10;65.53;100843.72;6126539;23;20005;-81
2021/06/29 03:45:53;;;;;;;5.75;4.75;;;;;;;22.03;65.34;100832.75;6153601;23;20006;-80
2021/06/29 03:48:18;;;;;;;10.75;5.47;;;;;;;22.05;65.29;100838.03;6152943;23;20048;-81
2021/06/29 03:50:43;;;;;;;7.85;5.05;;;;;;;21.96;64.54;100837.41;6153276;23;20011;-81
2021/06/29 03:53:09;;;;;;;7.55;5.80;;;;;;;21.82;64.65;100830.19;6126523;23;20461;-81
2021/06/29 03:55:35;;;;;;;8.30;5.93;;;;;;;21.88;64.18;100832.09;6127181;23;20332;-81
2021/06/29 03:58:00;;;;;;;11.63;6.18;;;;;;;21.88;64.09;100826.63;6126638;23;20005;-81
2021/06/29 04:00:26;;;;;;;12.15;6.63;;;;;;;21.84;63.94;100826.22;6153220;23;20009;-81
2021/06/29 04:02:51;;;;;;;11.48;6.45;;;;;;;21.77;64.17;100819.88;6153573;23;20057;-81
2021/06/29 04:05:17;;;;;;;12.88;6.07;;;;;;;21.76;63.98;100813.56;6153727;23;20009;-81
2021/06/29 04:07:44;;;;;;;12.80;7.28;;;;;;;21.70;64.19;100806.19;6127097;23;20009;-81
2021/06/29 04:10:09;;;;;;;13.27;7.22;;;;;;;21.69;64.25;100796.28;6153292;23;20018;-81
2021/06/29 04:12:35;;;;;;;13.00;6.63;;;;;;;21.73;63.88;100799.44;6126887;23;20013;-81
2021/06/29 04:15:00;;;;;;;12.15;6.75;;;;;;;21.66;64.06;100798.59;6126808;23;20426;-81
2021/06/29 04:17:26;;;;;;;18.08;7.47;;;;;;;21.57;64.70;100796.03;6153354;23;20009;-81
2021/06/29 04:19:51;;;;;;;10.82;7.10;;;;;;;21.67;64.42;100805.72;6153432;23;20017;-81
2021/06/29 04:22:16;;;;;;;10.00;6.30;;;;;;;21.68;64.66;100801.97;6153029;23;20048;-81
2021/06/29 04:24:42;;;;;;;14.07;7.68;;;;;;;21.70;64.47;100799.84;6152976;23;20009;-81
2021/06/29 04:27:08;;;;;;;10.98;6.50;;;;;;;21.74;64.41;100804.72;6152924;23;20044;-81
2021/06/29 04:29:33;;;;;;;10.48;6.18;;;;;;;21.80;63.78;100812.09;6152183;23;20073;-81
2021/06/29 04:31:58;;;;;;;9.55;6.20;;;;;;;21.81;63.09;100804.72;6152965;23;20010;-81
2021/06/29 04:34:24;;;;;;;10.35;5.38;;;;;;;21.87;62.47;100805.78;6126363;23;20389;-81
2021/06/29 04:36:49;;;;;;;7.57;5.80;;;;;;;21.79;62.07;100798.59;6126245;23;20005;-81
2021/06/29 04:39:14;;;;;;;12.13;6.00;;;;;;;21.73;62.01;100802.16;6152506;23;20133;-81
2021/06/29 04:41:40;;;;;;;8.15;5.50;;;;;;;21.88;61.42;100811.03;6153153;23;20009;-81
2021/06/29 04:44:06;;;;;;;13.15;6.05;;;;;;;21.75;61.59;100811.03;6152701;23;20015;-81
2021/06/29 04:46:32;;;;;;;9.02;6.97;;;;;;;21.72;61.73;100806.81;6153488;23;20412;-81
2021/06/29 04:48:58;;;;;;;10.93;5.93;;;;;;;21.71;62.16;100809.75;6152348;23;20036;-81
2021/06/29 04:51:24;;;;;;;10.23;6.82;;;;;;;21.76;61.92;100812.69;6152994;23;20010;-81
2021/06/29 04:53:49;;;;;;;19.30;7.65;;;;;;;21.81;62.00;100804.72;6155501;23;20012;-81
2021/06/29 04:56:17;;;;;;;12.70;6.30;;;;;;;21.84;62.06;100806.19;6154819;23;20076;-81
2021/06/29 04:58:44;;;;;;;9.48;6.70;;;;;;;21.84;61.99;100796.09;6127037;23;20406;-81
2021/06/29 05:01:09;;;;;;;12.00;6.10;;;;;;;21.89;61.85;100799.06;6126478;23;20037;-80
2021/06/29 05:03:35;;;;;;;11.75;6.88;;;;;;;22.01;61.21;100802.84;6153193;23;20065;-81
2021/06/29 05:06:00;;;;;;;9.52;6.25;;;;;;;21.95;61.21;100803.69;6155045;23;20036;-81
2021/06/29 05:08:25;;;;;;;9.02;6.57;;;;;;;21.98;61.55;100811.50;6152776;23;20182;-81
2021/06/29 05:10:50;;;;;;;12.27;6.15;;;;;;;22.08;61.48;100808.34;6153545;23;20561;-81
2021/06/29 05:13:16;;;;;;;18.20;6.47;;;;;;;22.15;61.41;100809.16;6152458;23;20005;-81
2021/06/29 05:15:41;;;;;;;12.18;7.20;;;;;;;22.22;61.17;100804.59;6126562;23;20013;-81
2021/06/29 05:18:06;;;;;;;10.48;6.15;;;;;;;22.32;61.14;100808.81;6126529;23;20115;-81
2021/06/29 05:20:32;;;;;;;15.73;7.75;;;;;;;22.29;60.82;100807.31;6153213;23;20080;-81
2021/06/29 05:22:57;;;;;;;13.20;7.60;;;;;;;22.36;61.03;100808.16;6152739;23;20362;-81
2021/06/29 05:25:23;;;;;;;9.50;7.32;;;;;;;22.41;60.80;100818.50;6152804;23;20037;-80
2021/06/29 05:27:48;;;;;;;14.05;7.57;;;;;;;22.44;60.46;100820.81;6152650;23;20017;-81
2021/06/29 05:30:14;;;;;;;13.18;7.13;;;;;;;22.48;60.08;100816.56;6153084;23;20005;-81
2021/06/29 05:32:39;;;;;;;12.73;6.68;;;;;;;22.45;59.98;100812.34;6152745;23;20005;-81
2021/06/29 05:35:06;;;;;;;11.77;7.10;;;;;;;22.55;59.83;100808.34;6152631;23;20017;-81
2021/06/29 05:37:32;;;;;;;9.77;7.10;;;;;;;22.41;59.87;100811.09;6154497;23;20012;-81
2021/06/29 05:39:57;;;;;;;10.43;7.05;;;;;;;22.47;60.03;100806.69;6153584;23;20005;-81
2021/06/29 05:42:23;;;;;;;11.38;6.80;;;;;;;22.52;60.17;100808.78;6153242;23;20036;-81
2021/06/29 05:44:48;;;;;;;11.70;6.63;;;;;;;22.55;60.37;100811.09;6152858;23;20337;-81
2021/06/29 05:47:20;;;;;;;13.20;7.70;;;;;;;22.58;59.86;100802.44;6152832;23;20056;-81
2021/06/29 05:49:45;;;;;;;11.32;7.32;;;;;;;22.53;59.62;100807.69;6153378;23;20005;-81
2021/06/29 05:52:10;;;;;;;10.90;7.30;;;;;;;22.65;59.79;100795.91;6152959;23;20495;-81
2021/06/29 05:54:35;;;;;;;10.35;6.72;;;;;;;22.67;60.30;100801.16;6152802;23;20010;-81
2021/06/29 05:57:01;;;;;;;12.68;6.97;;;;;;;22.72;59.56;100793.13;6153001;23;20346;-81
2021/06/29 05:59:26;;;;;;;12.80;6.68;;;;;;;22.75;59.79;100795.44;6126826;23;20085;-81
2021/06/29 06:01:52;;;;;;;17.58;7.25;;;;;;;22.78;59.84;100796.94;6155270;23;20009;-81
2021/06/29 06:04:18;;;;;;;10.65;6.85;;;;;;;22.81;59.65;100786.38;6127885;23;20016;-81
2021/06/29 06:06:43;;;;;;;12.02;6.68;;;;;;;22.88;59.52;100781.69;6154841;23;20033;-81
2021/06/29 06:09:09;;;;;;;14.88;7.10;;;;;;;22.93;59.16;100776.41;6154765;23;20335;-81
2021/06/29 06:11:34;;;;;;;13.27;6.93;;;;;;;22.98;59.48;100784.00;6127940;23;20029;-81
2021/06/29 06:13:59;;;;;;;8.73;6.07;;;;;;;23.07;59.18;100793.69;6128627;23;20390;-81
2021/06/29 06:16:25;;;;;;;14.43;6.78;;;;;;;23.07;59.30;100779.13;6154626;23;20009;-81
2021/06/29 06:18:50;;;;;;;13.30;6.10;;;;;;;23.19;58.99;100779.28;6154509;23;20019;-81
2021/06/29 06:21:15;;;;;;;10.57;6.03;;;;;;;23.24;59.27;100788.56;6128347;23;20016;-81
2021/06/29 06:23:41;;;;;;;13.15;7.57;;;;;;;23.30;58.91;100787.69;6154374;23;20068;-80
2021/06/29 06:26:06;;;;;;;14.00;6.50;;;;;;;23.31;59.25;100783.03;6154262;23;20311;-81
2021/06/29 06:28:31;;;;;;;11.38;6.85;;;;;;;23.40;58.32;100779.81;6127325;23;20409;-81
2021/06/29 06:30:57;;;;;;;10.07;5.60;;;;;;;23.52;58.69;100788.19;6128043;23;20009;-81
2021/06/29 06:33:22;;;;;;;12.23;6.50;;;;;;;23.52;58.44;100785.44;6153831;23;20446;-81
2021/06/29 06:35:51;;;;;;;14.57;7.22;;;;;;;23.60;58.25;100774.22;6153612;23;20013;-81
2021/06/29 06:38:16;;;;;;;10.23;6.75;;;;;;;23.54;58.45;100779.72;6154002;23;20010;-81
2021/06/29 06:40:41;;;;;;;10.57;6.82;;;;;;;23.70;58.07;100772.94;6154892;23;20322;-81
2021/06/29 06:43:07;;;;;;;10.18;6.93;;;;;;;23.65;57.60;100770.78;6127764;23;20011;-81
2021/06/29 06:45:32;;;;;;;9.65;6.30;;;;;;;23.81;57.80;100774.94;6155255;23;20036;-81
2021/06/29 06:47:57;;;;;;;10.23;6.70;;;;;;;23.89;57.51;100777.44;6154557;23;20084;-81
2021/06/29 06:50:23;;;;;;;11.27;7.03;;;;;;;23.84;57.73;100780.84;6153653;23;20064;-81
2021/06/29 06:52:50;;;;;;;12.98;7.03;;;;;;;23.91;57.86;100774.47;6127267;23;20012;-81
2021/06/29 06:55:19;;;;;;;11.18;8.10;;;;;;;24.00;57.73;100784.13;6153376;23;20316;-81
2021/06/29 06:57:44;;;;;;;10.38;7.40;;;;;;;24.05;57.88;100789.75;6153866;23;20434;-81
2021/06/29 07:00:10;;;;;;;12.15;7.53;;;;;;;24.03;57.76;100790.00;6153837;23;20009;-81
2021/06/29 07:02:37;;;;;;;11.80;6.50;;;;;;;24.13;57.16;100788.66;6153931;23;20441;-81
2021/06/29 07:05:05;;;;;;;14.27;7.45;;;;;;;24.16;57.24;100785.47;6127088;23;20013;-81
2021/06/29 07:07:30;;;;;;;9.65;6.10;;;;;;;24.28;56.95;100784.50;6153892;23;20375;-81
2021/06/29 07:09:55;;;;;;;9.82;7.13;;;;;;;24.28;57.98;100786.41;6153653;23;20012;-81
2021/06/29 07:12:21;;;;;;;7.13;6.25;;;;;;;24.38;56.38;100789.50;6153226;23;20016;-80
2021/06/29 07:14:46;;;;;;;12.68;7.60;;;;;;;24.43;56.94;100786.09;6153472;23;20013;-80
2021/06/29 07:17:11;;;;;;;11.00;6.70;;;;;;;24.43;56.91;100795.19;6154083;23;20017;-81
2021/06/29 07:19:37;;;;;;;11.90;7.00;;;;;;;24.46;56.75;100794.75;6153935;23;20006;-81
2021/06/29 07:22:02;;;;;;;10.25;6.60;;;;;;;24.44;56.84;100794.13;6154180;23;20418;-81
2021/06/29 07:24:27;;;;;;;11.52;6.40;;;;;;;24.46;56.78;100797.50;6153241;23;20012;-81
2021/06/29 07:26:53;;;;;;;9.85;5.88;;;;;;;24.45;56.76;100795.78;6154295;23;20405;-81
2021/06/29 07:29:19;;;;;;;9.43;5.80;;;;;;;24.47;57.04;100795.56;6153327;23;20024;-81
2021/06/29 07:31:44;;;;;;;13.10;6.70;;;;;;;24.54;56.85;100796.34;6127013;23;20468;-81
2021/06/29 07:34:09;;;;;;;9.52;6.25;;;;;;;24.49;56.83;100791.53;6153589;23;20017;-81
2021/06/29 07:36:34;;;;;;;11.27;6.10;;;;;;;24.39;56.63;100799.41;6153878;23;20009;-81
2021/06/29 07:39:00;;;;;;;12.88;6.80;;;;;;;24.60;56.42;100789.94;6154250;23;20221;-81
2021/06/29 07:41:25;;;;;;;12.65;6.20;;;;;;;24.70;56.66;100786.66;6153281;23;20092;-81
2021/06/29 07:43:54;;;;;;;7.97;5.47;;;;;;;24.75;56.37;100786.81;6126746;23;20016;-81
2021/06/29 07:46:20;;;;;;;11.82;6.15;;;;;;;24.79;56.57;100785.28;6153938;23;20200;-81
2021/06/29 07:48:45;;;;;;;12.38;5.50;;;;;;;24.76;56.47;100785.75;6153269;23;20005;-81
2021/06/29 07:51:10;;;;;;;9.32;6.70;;;;;;;24.83;55.77;100792.03;6152961;23;20465;-81
2021/06/29 07:53:37;;;;;;;10.88;6.65;;;;;;;24.76;56.13;100783.84;6153049;23;20513;-81
2021/06/29 07:56:03;;;;;;;9.88;5.85;;;;;;;24.93;55.60;100792.31;6153141;23;20456;-81
2021/06/29 07:58:29;;;;;;;9.88;6.15;;;;;;;24.91;55.92;100779.88;6153254;23;20006;-80
2021/06/29 08:00:55;;;;;;;10.07;5.80;;;;;;;24.99;55.25;100782.31;6152695;23;20386;-81
2021/06/29 08:03:20;;;;;;;11.95;6.10;;;;;;;25.05;55.62;100786.06;6126877;23;20012;-81
2021/06/29 08:05:46;;;;;;;12.38;6.38;;;;;;;24.90;54.97;100783.69;6126361;23;20013;-81
2021/06/29 08:08:11;;;;;;;9.27;5.95;;;;;;;25.04;54.58;100789.88;6126298;23;20453;-81
2021/06/29 08:10:37;;;;;;;10.95;6.07;;;;;;;25.03;54.80;100786.28;6153031;23;20484;-81
2021/06/29 08:13:07;;;;;;;9.65;6.32;;;;;;;25.04;54.53;100790.72;6152912;23;20009;-81
2021/06/29 08:15:33;;;;;;;11.52;6.05;;;;;;;25.09;54.89;100787.28;6126675;23;20016;-81
2021/06/29 08:17:58;;;;;;;9.13;6.30;;;;;;;25.10;54.87;100784.31;6126508;23;20009;-81
2021/06/29 08:20:24;;;;;;;9.60;6.03;;;;;;;25.13;55.58;100792.13;6152576;23;20568;-81
2021/06/29 08:22:53;;;;;;;6.63;5.57;;;;;;;25.28;55.02;100793.63;6153334;23;20020;-81
2021/06/29 08:25:20;;;;;;;9.88;6.68;;;;;;;25.34;54.60;100790.78;6152539;23;20448;-81
2021/06/29 08:27:46;;;;;;;10.15;5.85;;;;;;;25.45;54.03;100791.91;6152647;23;20014;-81
2021/06/29 08:30:12;;;;;;;9.15;5.90;;;;;;;25.45;54.31;100781.75;6152818;23;20005;-81
2021/06/29 08:32:38;;;;;;;10.35;6.25;;;;;;;25.49;53.74;100786.78;6152540;23;20009;-81
2021/06/29 08:35:10;;;;;;;11.52;6.47;;;;;;;25.48;54.06;100785.94;6153356;23;20496;-81
2021/06/29 08:37:36;;;;;;;13.20;6.32;;;;;;;25.51;54.00;100782.72;6152918;23;20009;-81
2021/06/29 08:40:05;;;;;;;11.13;6.20;;;;;;;25.38;54.09;100792.00;6126364;23;20005;-81
2021/06/29 08:42:33;;;;;;;9.35;6.93;;;;;;;25.19;54.39;100782.94;6152382;23;20009;-81
2021/06/29 08:44:59;;;;;;;9.85;6.43;;;;;;;25.18;54.43;100781.25;6153301;23;20015;-81
2021/06/29 08:47:25;;;;;;;9.10;5.80;;;;;;;25.14;54.16;100788.31;6125960;23;20096;-81
2021/06/29 08:49:50;;;;;;;10.63;6.95;;;;;;;24.97;55.07;100787.19;6154791;23;20005;-81
2021/06/29 08:52:15;;;;;;;8.85;6.05;;;;;;;24.96;55.63;100791.88;6154026;23;20006;-81
2021/06/29 08:54:42;;;;;;;13.15;7.22;;;;;;;24.89;55.46;100787.53;6153756;23;20171;-81
2021/06/29 08:57:07;;;;;;;12.13;6.93;;;;;;;24.84;55.65;100793.69;6155034;23;20032;-81
2021/06/29 08:59:33;;;;;;;11.88;7.38;;;;;;;24.74;56.10;100797.00;6127804;23;20017;-81
2021/06/29 09:02:02;;;;;;;14.30;7.10;;;;;;;24.73;56.08;100798.06;6152890;23;20462;-81
2021/06/29 09:04:50;;;;;;;13.80;6.28;;;;;;;24.69;56.54;100795.97;6126424;23;20002;-81
2021/06/29 09:07:29;;;;;;;11.27;6.47;;;;;;;24.80;56.57;100792.50;6152649;23;20084;-81
2021/06/29 09:09:59;;;;;;;9.27;7.50;;;;;;;24.87;55.61;100795.16;6125893;23;20052;-81
2021/06/29 09:12:48;;;;;;;14.70;8.10;;;;;;;24.97;55.58;100807.28;6152341;23;20009;-81
2021/06/29 09:15:43;;;;;;;9.02;7.28;;;;;;;25.04;55.39;100795.38;6154193;23;20001;-81
2021/06/29 09:18:12;;;;;;;12.57;7.50;;;;;;;25.16;54.99;100805.44;6152523;23;20013;-81
2021/06/29 09:20:44;;;;;;;11.70;7.97;;;;;;;25.26;54.93;100801.28;6152915;23;20064;-81
2021/06/29 09:23:14;;;;;;;11.63;7.63;;;;;;;25.38;55.64;100803.03;6152546;23;20010;-81
2021/06/29 09:25:49;;;;;;;11.18;7.22;;;;;;;25.50;54.60;100803.09;6153306;23;20013;-81
2021/06/29 09:28:21;;;;;;;15.60;7.55;;;;;;;25.72;55.39;100805.31;6125970;23;20427;-81
2021/06/29 09:30:56;;;;;;;11.80;7.13;;;;;;;25.90;54.48;100805.28;6153320;23;20006;-81
2021/06/29 09:33:27;;;;;;;9.20;7.57;;;;;;;25.95;54.13;100802.66;6126568;23;20010;-81
2021/06/29 09:35:55;;;;;;;11.38;7.07;;;;;;;26.02;53.62;100797.91;6154833;23;20341;-81
2021/06/29 09:38:24;;;;;;;9.90;7.47;;;;;;;26.16;53.76;100792.16;6129887;23;20438;-81
2021/06/29 09:40:56;;;;;;;10.85;6.70;;;;;;;26.07;53.88;100800.75;6154510;23;20009;-81
2021/06/29 09:43:22;;;;;;;10.77;6.90;;;;;;;26.17;53.13;100789.16;6155740;23;20315;-81
2021/06/29 09:45:51;;;;;;;7.60;6.38;;;;;;;26.20;52.95;100787.84;6156165;23;20006;-81
2021/06/29 09:48:26;;;;;;;15.73;8.02;;;;;;;26.12;52.25;100791.78;6155209;23;20010;-81
2021/06/29 09:50:53;;;;;;;15.68;8.30;;;;;;;26.05;52.08;100791.91;6157342;23;20016;-81
2021/06/29 09:53:24;;;;;;;11.43;7.70;;;;;;;26.08;52.42;100796.94;6157486;23;20009;-81
2021/06/29 09:55:52;;;;;;;12.10;7.43;;;;;;;26.04;52.17;100790.22;6154845;23;20496;-81
2021/06/29 09:58:19;;;;;;;12.20;7.75;;;;;;;26.08;52.01;100793.31;6154309;23;20013;-81
2021/06/29 10:00:48;;;;;;;14.93;6.97;;;;;;;26.03;52.24;100793.22;6131203;23;20008;-81
2021/06/29 10:03:36;;;;;;;14.25;7.25;;;;;;;26.10;52.97;100783.75;6156640;23;20115;-81
2021/06/29 10:06:13;;;;;;;13.80;7.30;;;;;;;26.03;52.17;100777.50;6154637;23;20064;-81
2021/06/29 10:08:41;;;;;;;11.43;7.22;;;;;;;26.09;53.01;100784.84;6127908;23;20041;-81
2021/06/29 10:11:09;;;;;;;10.43;7.85;;;;;;;26.10;51.99;100783.75;6154468;23;20006;-81
2021/06/29 10:13:40;;;;;;;11.02;7.43;;;;;;;26.11;52.46;100788.19;6153930;23;20006;-81
2021/06/29 10:16:08;;;;;;;11.55;7.40;;;;;;;26.15;53.45;100780.28;6154269;23;20434;-81
2021/06/29 10:18:39;;;;;;;9.38;6.53;;;;;;;26.16;53.16;100779.19;6154902;23;20009;-81
2021/06/29 10:21:15;;;;;;;;;;;;;;;26.10;53.78;100789.25;6128921;23;20090;-81
2021/06/29 10:23:41;;;;;;;10.52;7.30;;;;;;;26.18;52.43;100787.25;6155116;23;20329;-81
2021/06/29 10:26:07;;;;;;;17.52;7.50;;;;;;;26.16;52.44;100775.63;6154027;23;20386;-81
2021/06/29 10:28:34;;;;;;;8.57;7.32;;;;;;;26.12;53.03;100781.59;6127201;23;20072;-81
2021/06/29 10:30:59;;;;;;;8.55;7.43;;;;;;;26.10;53.06;100786.50;6154258;23;20016;-81
2021/06/29 10:33:26;;;;;;;14.93;8.10;;;;;;;26.08;53.32;100780.41;6127124;23;20113;-81
2021/06/29 10:35:53;;;;;;;11.15;7.10;;;;;;;26.08;53.86;100785.91;6158859;23;20040;-82
2021/06/29 10:38:20;;;;;;;9.07;8.13;;;;;;;26.19;53.17;100784.25;6153668;23;20006;-81
2021/06/29 10:40:50;;;;;;;12.00;8.05;;;;;;;26.22;53.27;100778.25;6153570;23;20001;-81
2021/06/29 10:43:16;;;;;;;9.63;7.25;;;;;;;26.35;53.03;100771.66;6127303;23;20493;-81
2021/06/29 10:45:41;;;;;;;9.88;7.20;;;;;;;26.54;52.59;100776.03;6154445;23;20037;-81
2021/06/29 10:48:24;;;;;;;9.43;7.45;;;;;;;26.62;52.71;100780.31;6154101;23;20012;-81
2021/06/29 10:50:52;;;;;;;9.18;6.47;;;;;;;26.78;52.33;100773.22;6155361;23;20033;-81
2021/06/29 10:53:45;;;;;;;13.07;8.35;;;;;;;26.79;52.28;100772.16;6153930;23;20415;-81
2021/06/29 10:56:16;;;;;;;11.45;7.18;;;;;;;26.91;51.89;100780.41;6125126;23;20481;-81
2021/06/29 10:58:46;;;;;;;14.15;7.85;;;;;;;26.87;52.34;100768.16;6154260;23;20013;-81
2021/06/29 11:01:26;;;;;;;9.80;8.02;;;;;;;26.90;52.15;100774.03;6154875;23;20508;-81
2021/06/29 11:03:54;;;;;;;10.93;7.28;;;;;;;27.07;51.53;100768.59;6154201;23;20037;-81
2021/06/29 11:06:49;;;;;;;8.95;6.78;;;;;;;27.16;52.61;100771.88;6163047;23;20009;-81
2021/06/29 11:09:21;;;;;;;13.05;8.02;;;;;;;27.29;51.72;100773.50;6135057;23;20013;-81
2021/06/29 11:12:25;;;;;;;9.00;6.97;;;;;;;27.54;50.94;100770.38;6161345;23;20341;-81
2021/06/29 11:14:53;;;;;;;10.85;6.82;;;;;;;27.71;51.52;100771.25;6101609;23;20009;-81
2021/06/29 11:17:21;;;;;;;10.05;8.05;;;;;;;27.87;50.66;100770.47;6162957;23;20021;-82
2021/06/29 11:20:08;;;;;;;14.20;9.18;;;;;;;27.89;49.49;100773.81;6161168;23;20005;-81
2021/06/29 11:22:51;;;;;;;15.82;8.25;;;;;;;27.89;48.80;100764.72;6154582;23;20089;-81
2021/06/29 11:25:53;;;;;;;11.82;8.00;;;;;;;27.79;49.26;100757.03;6127807;23;20020;-81